createdAt,value
2018-12-14T00:01:34.450Z,31.83
2018-12-14T00:04:02.899Z,31.37
2018-12-14T00:06:31.359Z,31.07
2018-12-14T00:08:59.807Z,31.30
2018-12-14T00:11:28.271Z,32.17
2018-12-14T00:13:56.934Z,32.33
2018-12-14T00:16:25.519Z,30.23
2018-12-14T00:21:28.911Z,31.80
2018-12-14T00:23:57.359Z,30.13
2018-12-14T00:26:25.824Z,30.13
2018-12-14T00:28:54.284Z,28.43
2018-12-14T00:31:22.739Z,30.07
2018-12-14T00:33:51.195Z,26.73
2018-12-14T00:36:19.619Z,30.33
2018-12-14T00:38:48.186Z,29.87
2018-12-14T00:41:16.635Z,29.10
2018-12-14T00:43:45.131Z,30.20
2018-12-14T00:46:13.551Z,31.87
2018-12-14T00:48:41.963Z,29.00
2018-12-14T00:51:10.412Z,28.13
2018-12-14T00:53:38.875Z,29.90
2018-12-14T00:56:07.341Z,30.93
2018-12-14T00:58:35.759Z,30.60
2018-12-14T01:01:04.192Z,29.77
2018-12-14T01:03:32.631Z,31.30
2018-12-14T01:06:01.075Z,31.37
2018-12-14T01:08:29.495Z,33.67
2018-12-14T01:10:57.975Z,28.53
2018-12-14T01:13:26.443Z,31.03
2018-12-14T01:15:54.887Z,30.00
2018-12-14T01:18:23.343Z,31.60
2018-12-14T01:20:51.883Z,30.70
2018-12-14T01:23:20.343Z,33.63
2018-12-14T01:25:48.774Z,31.07
2018-12-14T01:28:17.191Z,33.30
2018-12-14T01:30:45.639Z,32.67
2018-12-14T01:33:14.045Z,36.07
2018-12-14T01:35:42.487Z,31.63
2018-12-14T01:38:10.974Z,33.03
2018-12-14T01:40:39.448Z,34.17
2018-12-14T01:43:07.858Z,32.43
2018-12-14T01:45:36.326Z,31.00
2018-12-14T01:48:04.751Z,31.40
2018-12-14T01:50:33.163Z,32.57
2018-12-14T01:53:01.627Z,31.33
2018-12-14T01:55:30.042Z,35.67
2018-12-14T01:57:58.671Z,32.40
2018-12-14T02:00:27.087Z,33.17
2018-12-14T02:02:55.535Z,31.47
2018-12-14T02:05:23.979Z,32.40
2018-12-14T02:07:52.399Z,31.07
2018-12-14T02:10:20.842Z,30.20
2018-12-14T02:12:49.247Z,27.87
2018-12-14T02:15:17.707Z,30.73
2018-12-14T02:17:46.155Z,31.20
2018-12-14T02:20:14.565Z,31.63
2018-12-14T02:22:43.055Z,29.27
2018-12-14T02:25:11.505Z,28.03
2018-12-14T02:27:39.930Z,30.47
2018-12-14T02:30:19.768Z,27.40
2018-12-14T02:32:48.176Z,29.53
2018-12-14T02:35:16.594Z,29.60
2018-12-14T02:37:45.255Z,30.63
2018-12-14T02:40:13.863Z,31.87
2018-12-14T02:42:42.281Z,30.83
2018-12-14T02:45:10.731Z,30.60
2018-12-14T02:47:39.154Z,31.17
2018-12-14T02:50:07.619Z,28.63
2018-12-14T02:52:36.071Z,29.47
2018-12-14T02:55:04.895Z,25.60
2018-12-14T02:57:33.347Z,26.97
2018-12-14T03:00:01.764Z,27.40
2018-12-14T03:02:30.222Z,24.70
2018-12-14T03:04:58.747Z,28.93
2018-12-14T03:07:27.233Z,31.10
2018-12-14T03:09:55.676Z,31.37
2018-12-14T03:12:26.865Z,31.47
2018-12-14T03:14:54.689Z,31.57
2018-12-14T03:17:23.972Z,30.40
2018-12-14T03:19:52.511Z,29.07
2018-12-14T03:22:21.311Z,29.00
2018-12-14T03:24:49.888Z,28.20
2018-12-14T03:27:18.936Z,28.00
2018-12-14T03:29:47.348Z,28.67
2018-12-14T03:32:16.013Z,26.07
2018-12-14T03:34:44.431Z,26.87
2018-12-14T03:37:12.883Z,26.80
2018-12-14T03:39:41.312Z,28.57
2018-12-14T03:42:09.784Z,27.03
2018-12-14T03:44:38.342Z,29.23
2018-12-14T03:47:06.788Z,30.40
2018-12-14T03:49:35.319Z,28.60
2018-12-14T03:52:03.864Z,26.03
2018-12-14T03:54:32.318Z,24.40
2018-12-14T03:57:00.739Z,27.10
2018-12-14T03:59:29.188Z,25.27
2018-12-14T04:01:57.731Z,26.27
2018-12-14T04:04:26.191Z,28.30
2018-12-14T04:06:54.714Z,23.70
2018-12-14T04:09:23.176Z,27.13
2018-12-14T04:11:51.633Z,28.63
2018-12-14T04:14:20.067Z,24.40
2018-12-14T04:16:48.531Z,26.53
2018-12-14T04:19:16.940Z,28.07
2018-12-14T04:21:45.404Z,25.77
2018-12-14T04:24:13.811Z,24.50
2018-12-14T04:26:42.246Z,28.13
2018-12-14T04:29:10.764Z,28.60
2018-12-14T04:31:39.255Z,32.20
2018-12-14T04:34:07.735Z,25.87
2018-12-14T04:36:36.532Z,25.40
2018-12-14T04:39:06.899Z,26.60
2018-12-14T04:41:35.329Z,25.80
2018-12-14T04:44:03.855Z,29.20
2018-12-14T04:46:32.307Z,25.77
2018-12-14T04:49:00.728Z,26.97
2018-12-14T04:51:29.282Z,27.20
2018-12-14T04:53:57.751Z,30.87
2018-12-14T04:56:26.315Z,30.03
2018-12-14T04:58:54.730Z,31.33
2018-12-14T05:01:23.181Z,33.40
2018-12-14T05:03:51.584Z,30.53
2018-12-14T05:06:20.047Z,33.53
2018-12-14T05:08:48.503Z,33.27
2018-12-14T05:11:16.959Z,32.90
2018-12-14T05:13:45.372Z,33.43
2018-12-14T05:16:13.810Z,32.40
2018-12-14T05:18:42.268Z,33.63
2018-12-14T05:21:10.687Z,31.50
2018-12-14T05:23:39.139Z,32.97
2018-12-14T05:26:07.567Z,31.47
2018-12-14T05:28:36.019Z,34.07
2018-12-14T05:31:04.471Z,32.87
2018-12-14T05:33:32.919Z,33.83
2018-12-14T05:36:01.416Z,33.43
2018-12-14T05:38:29.872Z,33.23
2018-12-14T05:40:58.315Z,33.80
2018-12-14T05:43:26.767Z,33.00
2018-12-14T05:45:55.247Z,32.83
2018-12-14T05:48:23.663Z,31.80
2018-12-14T05:50:52.079Z,32.93
2018-12-14T05:53:20.507Z,32.17
2018-12-14T05:55:48.955Z,30.30
2018-12-14T05:58:17.406Z,35.43
2018-12-14T06:00:45.851Z,36.47
2018-12-14T06:03:14.307Z,38.20
2018-12-14T06:05:42.755Z,34.23
2018-12-14T06:08:11.171Z,34.60
2018-12-14T06:10:39.647Z,38.77
2018-12-14T06:13:09.223Z,39.87
2018-12-14T06:15:38.518Z,37.33
2018-12-14T06:18:06.963Z,44.80
2018-12-14T06:20:35.372Z,42.70
2018-12-14T06:23:03.840Z,46.50
2018-12-14T06:25:32.273Z,43.10
2018-12-14T06:28:00.743Z,46.27
2018-12-14T06:30:29.154Z,43.37
2018-12-14T06:32:57.628Z,45.80
2018-12-14T06:35:26.037Z,43.73
2018-12-14T06:37:54.474Z,43.33
2018-12-14T06:40:22.974Z,48.13
2018-12-14T06:42:51.450Z,41.90
2018-12-14T06:45:19.899Z,47.33
2018-12-14T06:47:48.343Z,47.53
2018-12-14T06:50:16.795Z,52.17
2018-12-14T06:52:45.210Z,49.50
2018-12-14T06:55:13.631Z,53.97
2018-12-14T06:57:42.071Z,51.30
2018-12-14T07:00:10.628Z,53.37
2018-12-14T07:02:39.075Z,50.23
2018-12-14T07:05:07.611Z,50.80
2018-12-14T07:07:36.066Z,48.53
2018-12-14T07:10:04.998Z,53.23
2018-12-14T07:12:33.528Z,52.33
2018-12-14T07:15:01.979Z,49.17
2018-12-14T07:17:30.451Z,51.27
2018-12-14T07:19:58.863Z,52.17
2018-12-14T07:22:27.279Z,49.43
2018-12-14T07:24:55.743Z,48.83
2018-12-14T07:27:24.198Z,50.23
2018-12-14T07:29:52.942Z,50.53
2018-12-14T07:32:21.376Z,53.77
2018-12-14T07:34:49.951Z,49.07
2018-12-14T07:37:18.364Z,51.47
2018-12-14T07:39:46.829Z,50.90
2018-12-14T07:42:15.324Z,52.67
2018-12-14T07:44:43.852Z,54.27
2018-12-14T07:47:13.131Z,49.47
2018-12-14T07:49:41.547Z,53.93
2018-12-14T07:52:10.779Z,55.00
2018-12-14T07:54:39.196Z,57.97
2018-12-14T07:57:07.649Z,51.37
2018-12-14T07:59:36.075Z,54.97
2018-12-14T08:02:04.531Z,55.93
2018-12-14T08:04:33.820Z,56.53
2018-12-14T08:07:03.107Z,56.03
2018-12-14T08:09:31.579Z,54.30
2018-12-14T08:12:00.043Z,50.07
2018-12-14T08:14:28.476Z,55.40
2018-12-14T08:16:56.944Z,58.83
2018-12-14T08:19:25.405Z,56.53
2018-12-14T08:21:53.927Z,57.97
2018-12-14T08:24:22.375Z,61.13
2018-12-14T08:26:50.816Z,57.93
2018-12-14T08:29:19.232Z,57.50
2018-12-14T08:31:47.679Z,54.77
2018-12-14T08:34:16.119Z,59.27
2018-12-14T08:36:44.593Z,55.30
2018-12-14T08:39:13.003Z,53.57
2018-12-14T08:41:41.455Z,57.93
2018-12-14T08:44:09.895Z,54.37
2018-12-14T08:46:38.348Z,55.53
2018-12-14T08:49:06.763Z,56.27
2018-12-14T08:51:35.228Z,57.60
2018-12-14T08:54:03.703Z,50.70
2018-12-14T08:56:32.219Z,54.33
2018-12-14T08:59:00.644Z,54.67
2018-12-14T09:01:29.095Z,56.43
2018-12-14T09:03:57.543Z,54.07
2018-12-14T09:06:25.955Z,51.47
2018-12-14T09:08:54.411Z,56.03
2018-12-14T09:11:22.833Z,49.20
2018-12-14T09:13:51.307Z,53.97
2018-12-14T09:16:19.727Z,52.53
2018-12-14T09:18:48.178Z,47.57
2018-12-14T09:23:51.319Z,54.23
2018-12-14T09:26:19.742Z,53.60
2018-12-14T09:28:49.178Z,52.20
2018-12-14T09:31:18.539Z,52.03
2018-12-14T09:33:46.991Z,55.13
2018-12-14T09:36:15.447Z,57.03
2018-12-14T09:38:43.880Z,54.93
2018-12-14T09:41:16.219Z,59.93
2018-12-14T09:43:42.784Z,56.87
2018-12-14T09:46:11.271Z,55.33
2018-12-14T09:48:39.678Z,54.03
2018-12-14T09:51:12.294Z,56.93
2018-12-14T09:53:38.593Z,49.47
2018-12-14T09:56:07.052Z,52.73
2018-12-14T09:58:35.499Z,58.30
2018-12-14T10:01:03.923Z,54.33
2018-12-14T10:03:33.069Z,58.57
2018-12-14T10:06:01.523Z,55.87
2018-12-14T10:08:29.927Z,51.53
2018-12-14T10:10:59.975Z,55.27
2018-12-14T10:13:29.399Z,48.73
2018-12-14T10:15:58.631Z,50.07
2018-12-14T10:18:27.096Z,48.30
2018-12-14T10:20:55.581Z,51.10
2018-12-14T10:23:24.065Z,50.93
2018-12-14T10:25:52.507Z,53.13
2018-12-14T10:28:20.915Z,57.17
2018-12-14T10:30:49.379Z,52.10
2018-12-14T10:33:17.840Z,51.50
2018-12-14T10:35:46.409Z,51.23
2018-12-14T10:38:14.820Z,55.87
2018-12-14T10:40:43.332Z,53.87
2018-12-14T10:43:11.887Z,49.57
2018-12-14T10:45:41.123Z,46.70
2018-12-14T10:48:09.582Z,49.90
2018-12-14T10:50:39.671Z,51.27
2018-12-14T10:53:12.779Z,51.60
2018-12-14T10:55:41.559Z,53.23
2018-12-14T10:58:10.147Z,53.33
2018-12-14T11:00:43.805Z,52.23
2018-12-14T11:03:12.288Z,45.33
2018-12-14T11:05:40.726Z,48.17
2018-12-14T11:08:09.207Z,49.73
2018-12-14T11:10:37.616Z,46.30
2018-12-14T11:13:06.083Z,45.80
2018-12-14T11:15:35.395Z,48.73
2018-12-14T11:18:03.844Z,44.40
2018-12-14T11:20:32.287Z,49.07
2018-12-14T11:23:01.911Z,52.37
2018-12-14T11:25:30.319Z,50.33
2018-12-14T11:27:59.787Z,48.67
2018-12-14T11:30:28.192Z,48.20
2018-12-14T11:32:56.632Z,47.77
2018-12-14T11:35:25.083Z,48.10
2018-12-14T11:37:53.511Z,46.10
2018-12-14T11:40:21.917Z,44.57
2018-12-14T11:42:50.366Z,47.37
2018-12-14T11:45:18.830Z,52.80
2018-12-14T11:47:47.272Z,43.57
2018-12-14T11:50:15.740Z,47.67
2018-12-14T11:52:44.215Z,44.37
2018-12-14T11:55:12.783Z,48.60
2018-12-14T11:57:41.290Z,50.77
2018-12-14T12:00:13.623Z,49.00
2018-12-14T12:02:43.326Z,46.23
2018-12-14T12:05:12.547Z,46.67
2018-12-14T12:07:42.226Z,48.53
2018-12-14T12:10:11.468Z,49.10
2018-12-14T12:12:40.421Z,45.33
2018-12-14T12:15:09.720Z,48.33
2018-12-14T12:17:40.492Z,45.93
2018-12-14T12:20:09.340Z,51.10
2018-12-14T12:22:37.806Z,49.03
2018-12-14T12:25:06.497Z,54.43
2018-12-14T12:27:34.912Z,52.27
2018-12-14T12:30:04.215Z,46.77
2018-12-14T12:32:32.640Z,44.20
2018-12-14T12:35:01.143Z,53.37
2018-12-14T12:37:29.555Z,44.67
2018-12-14T12:39:57.961Z,43.93
2018-12-14T12:42:27.460Z,44.07
2018-12-14T12:44:55.875Z,43.27
2018-12-14T12:47:24.351Z,40.53
2018-12-14T12:49:52.812Z,43.60
2018-12-14T12:52:21.292Z,41.67
2018-12-14T12:54:49.704Z,45.00
2018-12-14T12:57:18.158Z,47.00
2018-12-14T12:59:46.587Z,45.70
2018-12-14T13:02:15.070Z,44.87
2018-12-14T13:04:44.327Z,44.30
2018-12-14T13:07:12.783Z,42.17
2018-12-14T13:09:41.276Z,39.87
2018-12-14T13:12:09.686Z,47.83
2018-12-14T13:14:40.199Z,42.97
2018-12-14T13:17:08.570Z,45.80
2018-12-14T13:19:37.018Z,42.93
2018-12-14T13:22:05.545Z,47.97
2018-12-14T13:24:34.008Z,43.80
2018-12-14T13:27:02.675Z,42.80
2018-12-14T13:29:31.116Z,44.53
2018-12-14T13:32:00.531Z,42.20
2018-12-14T13:34:28.995Z,42.27
2018-12-14T13:36:57.453Z,42.13
2018-12-14T13:39:25.876Z,42.30
2018-12-14T13:41:54.420Z,40.83
2018-12-14T13:44:22.970Z,43.00
2018-12-14T13:46:51.487Z,39.97
2018-12-14T13:49:19.959Z,40.67
2018-12-14T13:51:48.402Z,41.43
2018-12-14T13:54:16.843Z,41.57
2018-12-14T13:56:45.303Z,34.17
2018-12-14T13:59:13.747Z,38.63
2018-12-14T14:01:42.195Z,37.63
2018-12-14T14:04:10.647Z,39.30
2018-12-14T14:06:39.052Z,35.00
2018-12-14T14:09:07.507Z,36.50
2018-12-14T14:11:36.133Z,39.00
2018-12-14T14:14:04.727Z,50.00
2018-12-14T14:16:33.153Z,47.53
2018-12-14T14:19:01.723Z,49.20
2018-12-14T14:21:30.210Z,43.33
2018-12-14T14:23:58.611Z,46.67
2018-12-14T14:26:27.050Z,48.10
2018-12-14T14:28:55.471Z,54.20
2018-12-14T14:31:23.940Z,51.00
2018-12-14T14:33:52.403Z,51.23
2018-12-14T14:36:20.986Z,52.27
2018-12-14T14:38:49.523Z,48.33
2018-12-14T14:41:17.935Z,47.20
2018-12-14T14:43:46.651Z,50.43
2018-12-14T14:46:15.135Z,50.67
2018-12-14T14:48:43.623Z,55.27
2018-12-14T14:51:12.847Z,47.70
2018-12-14T14:53:41.307Z,48.10
2018-12-14T14:56:09.739Z,47.63
2018-12-14T14:58:38.183Z,51.30
2018-12-14T15:01:06.871Z,51.60
2018-12-14T15:03:35.387Z,50.47
2018-12-14T15:06:03.863Z,49.93
2018-12-14T15:08:32.330Z,46.27
2018-12-14T15:11:00.751Z,40.60
2018-12-14T15:13:31.360Z,41.57
2018-12-14T15:15:59.787Z,42.40
2018-12-14T15:18:28.240Z,39.97
2018-12-14T15:20:56.710Z,43.73
2018-12-14T15:23:25.138Z,38.67
2018-12-14T15:25:53.567Z,41.83
2018-12-14T15:28:21.983Z,39.67
2018-12-14T15:30:50.453Z,41.47
2018-12-14T15:33:18.971Z,38.87
2018-12-14T15:35:48.498Z,36.57
2018-12-14T15:38:16.987Z,40.60
2018-12-14T15:40:45.408Z,38.17
2018-12-14T15:43:13.899Z,36.77
2018-12-14T15:45:42.343Z,36.97
2018-12-14T15:48:10.803Z,36.60
2018-12-14T15:50:39.262Z,37.50
2018-12-14T15:59:55.775Z,42.97
2018-12-14T16:02:24.247Z,41.70
2018-12-14T16:04:52.696Z,40.23
2018-12-14T16:07:21.292Z,40.87
2018-12-14T16:09:49.859Z,43.20
2018-12-14T16:12:18.331Z,38.20
2018-12-14T16:14:46.775Z,41.13
2018-12-14T16:17:15.392Z,44.77
2018-12-14T16:19:44.597Z,49.83
2018-12-14T16:22:13.198Z,46.27
2018-12-14T16:24:41.766Z,53.03
2018-12-14T16:27:10.326Z,44.03
2018-12-14T16:29:38.818Z,44.17
2018-12-14T16:32:07.372Z,43.70
2018-12-14T16:34:35.919Z,38.77
2018-12-14T16:37:04.908Z,44.13
2018-12-14T16:39:33.356Z,43.60
2018-12-14T16:42:01.860Z,43.00
2018-12-14T16:44:30.388Z,45.40
2018-12-14T16:46:58.895Z,41.57
2018-12-14T16:49:27.379Z,43.73
2018-12-14T16:51:55.816Z,43.63
2018-12-14T16:54:24.315Z,47.83
2018-12-14T16:56:52.764Z,42.67
2018-12-14T16:59:21.279Z,45.27
2018-12-14T17:01:49.904Z,41.87
2018-12-14T17:04:18.327Z,41.17
2018-12-14T17:06:46.775Z,48.77
2018-12-14T17:09:15.195Z,43.43
2018-12-14T17:11:43.773Z,45.23
2018-12-14T17:14:12.351Z,48.67
2018-12-14T17:16:40.875Z,42.27
2018-12-14T17:19:09.295Z,45.80
2018-12-14T17:21:37.785Z,49.30
2018-12-14T17:24:06.350Z,46.90
2018-12-14T17:26:35.001Z,49.23
2018-12-14T17:29:03.663Z,48.33
2018-12-14T17:31:32.140Z,50.00
2018-12-14T17:34:00.719Z,47.93
2018-12-14T17:36:29.176Z,46.73
2018-12-14T17:38:57.595Z,47.83
2018-12-14T17:41:26.055Z,45.23
2018-12-14T17:43:54.488Z,46.80
2018-12-14T17:46:23.043Z,48.67
2018-12-14T17:48:51.503Z,46.23
2018-12-14T17:51:19.972Z,47.33
2018-12-14T17:53:48.432Z,48.53
2018-12-14T17:56:16.840Z,52.20
2018-12-14T17:58:45.303Z,48.43
2018-12-14T18:01:13.728Z,48.30
2018-12-14T18:03:42.263Z,52.20
2018-12-14T18:06:10.679Z,53.97
2018-12-14T18:08:39.101Z,51.70
2018-12-14T18:11:07.683Z,51.23
2018-12-14T18:13:36.116Z,53.77
2018-12-14T18:16:04.843Z,52.47
2018-12-14T18:18:33.263Z,51.60
2018-12-14T18:21:01.687Z,51.13
2018-12-14T18:23:30.223Z,49.33
2018-12-14T18:25:59.701Z,65.57
2018-12-14T18:28:28.168Z,78.80
2018-12-14T18:30:56.614Z,78.73
2018-12-14T18:33:25.040Z,57.67
2018-12-14T18:35:53.492Z,51.17
2018-12-14T18:38:21.963Z,55.13
2018-12-14T18:40:50.615Z,55.40
2018-12-14T18:43:19.033Z,48.33
2018-12-14T18:45:52.971Z,52.20
2018-12-14T18:48:17.997Z,52.53
2018-12-14T18:50:46.447Z,55.47
2018-12-14T18:53:15.040Z,54.50
2018-12-14T18:55:43.463Z,54.87
2018-12-14T18:58:11.927Z,54.07
2018-12-14T19:00:40.371Z,52.93
2018-12-14T19:03:08.842Z,48.97
2018-12-14T19:05:37.360Z,53.10
2018-12-14T19:08:05.835Z,51.20
2018-12-14T19:10:34.287Z,55.83
2018-12-14T19:13:02.756Z,51.50
2018-12-14T19:15:31.169Z,51.00
2018-12-14T19:18:00.683Z,49.27
2018-12-14T19:20:29.183Z,50.70
2018-12-14T19:22:57.611Z,50.43
2018-12-14T19:25:26.092Z,47.67
2018-12-14T19:27:54.547Z,50.63
2018-12-14T19:30:23.021Z,47.70
2018-12-14T19:32:51.467Z,46.97
2018-12-14T19:35:19.896Z,48.67
2018-12-14T19:37:48.495Z,49.33
2018-12-14T19:40:16.964Z,48.70
2018-12-14T19:42:45.816Z,47.93
2018-12-14T19:45:14.296Z,50.73
2018-12-14T19:47:42.788Z,45.67
2018-12-14T19:50:11.470Z,47.43
2018-12-14T19:52:39.933Z,50.57
2018-12-14T19:55:08.719Z,49.33
2018-12-14T19:57:37.186Z,48.33
2018-12-14T20:00:08.015Z,48.00
2018-12-14T20:02:36.591Z,50.23
2018-12-14T20:05:05.308Z,48.33
2018-12-14T20:07:33.815Z,49.13
2018-12-14T20:10:02.279Z,44.90
2018-12-14T20:12:30.699Z,48.57
2018-12-14T20:14:59.183Z,50.27
2018-12-14T20:17:27.658Z,52.40
2018-12-14T20:19:57.243Z,47.93
2018-12-14T20:22:25.678Z,52.73
2018-12-14T20:24:54.176Z,51.70
2018-12-14T20:27:22.889Z,49.47
2018-12-14T20:29:51.973Z,49.77
2018-12-14T20:32:20.543Z,50.90
2018-12-14T20:34:49.231Z,48.20
2018-12-14T20:37:17.825Z,53.73
2018-12-14T20:39:46.315Z,51.77
2018-12-14T20:42:14.770Z,51.60
2018-12-14T20:44:43.187Z,55.27
2018-12-14T20:47:11.655Z,59.43
2018-12-14T20:49:40.104Z,53.83
2018-12-14T20:52:08.539Z,53.53
2018-12-14T20:54:38.046Z,54.53
2018-12-14T20:57:06.656Z,51.77
2018-12-14T20:59:35.142Z,54.53
2018-12-14T21:02:03.699Z,55.63
2018-12-14T21:04:32.134Z,57.33
2018-12-14T21:07:00.647Z,55.00
2018-12-14T21:09:29.089Z,53.37
2018-12-14T21:11:57.553Z,55.30
2018-12-14T21:14:26.797Z,55.70
2018-12-14T21:16:55.327Z,57.80
2018-12-14T21:19:23.811Z,54.63
2018-12-14T21:21:52.243Z,58.00
2018-12-14T21:24:20.682Z,58.07
2018-12-14T21:26:49.100Z,60.03
2018-12-14T21:29:17.554Z,57.10
2018-12-14T21:31:46.017Z,59.77
2018-12-14T21:34:14.504Z,60.10
2018-12-14T21:36:42.978Z,56.00
2018-12-14T21:39:11.399Z,51.53
2018-12-14T21:41:39.926Z,58.67
2018-12-14T21:44:08.355Z,57.17
2018-12-14T21:46:36.836Z,57.63
2018-12-14T21:49:05.261Z,60.00
2018-12-14T21:51:33.928Z,57.57
2018-12-14T21:54:02.340Z,55.67
2018-12-14T21:56:30.827Z,55.33
2018-12-14T21:58:59.284Z,56.27
2018-12-14T22:01:27.719Z,55.83
2018-12-14T22:03:56.182Z,58.23
2018-12-14T22:06:24.691Z,56.50
2018-12-14T22:08:53.126Z,56.07
2018-12-14T22:11:21.576Z,61.60
2018-12-14T22:13:50.031Z,56.00
2018-12-14T22:16:18.499Z,57.20
2018-12-14T22:18:46.909Z,56.93
2018-12-14T22:21:15.346Z,54.57
2018-12-14T22:23:43.900Z,54.87
2018-12-14T22:26:12.298Z,54.20
2018-12-14T22:28:40.907Z,58.03
2018-12-14T22:31:09.359Z,53.70
2018-12-14T22:33:37.820Z,59.93
2018-12-14T22:36:06.254Z,54.40
2018-12-14T22:38:34.745Z,58.47
2018-12-14T22:41:03.219Z,55.47
2018-12-14T22:43:31.676Z,55.13
2018-12-14T22:46:00.131Z,57.50
2018-12-14T22:48:28.613Z,57.43
2018-12-14T22:50:57.088Z,54.67
2018-12-14T22:53:25.536Z,54.57
2018-12-14T22:55:53.995Z,57.30
2018-12-14T22:58:22.417Z,55.63
2018-12-14T23:00:53.231Z,59.00
2018-12-14T23:03:22.007Z,58.50
2018-12-14T23:05:50.842Z,58.67
2018-12-14T23:08:19.305Z,59.53
2018-12-14T23:10:48.787Z,63.27
2018-12-14T23:13:17.247Z,59.80
2018-12-14T23:15:45.704Z,63.97
2018-12-14T23:18:14.131Z,66.60
2018-12-14T23:20:42.627Z,63.30
2018-12-14T23:23:11.119Z,65.73
2018-12-14T23:25:39.703Z,65.13
2018-12-14T23:28:08.171Z,65.20
2018-12-14T23:30:36.628Z,66.00
2018-12-14T23:33:05.038Z,66.50
2018-12-14T23:35:33.511Z,67.47
2018-12-14T23:38:01.939Z,68.47
2018-12-14T23:47:17.387Z,64.30
2018-12-14T23:49:45.803Z,66.70
2018-12-14T23:52:14.220Z,69.80
2018-12-14T23:54:42.699Z,70.13
2018-12-14T23:57:12.354Z,74.87
2018-12-14T23:59:41.586Z,78.83
